DLH8 EDDF-UBBB
Flight info
| Callsign | DLH8 |
|---|---|
| Flight time | N/A |
| Altitude | 31000 |
| Route | CINDY5L CINDY Z74 HAREM DCT ASLEP DCT TAKUT L603 BESNI/N0461F330 L605 MIQ DCT ALUTU DCT BIBAG L605 ESEGA DCT STEIN/N0453F350 DCT TEGRI DCT DINRO N743 UDROS UM859 KARDE UN644 ROLIN N644 LAGAS M747 SUBUT T923 ERLEV |
| Aircraft | A320/M-SDE3FGHIRWY/LB1 |
Departure
| Time | N/A |
|---|---|
| Airport | Frankfurt Main Airport (EDDF) |
Arrival
| Time | 2026-05-07 12:44 |
|---|---|
| Airport | Heydar Aliyev International Airport (UBBB) |
| Time | Latitude | Longitude | Altitude | Speed | Heading |
|---|---|---|---|---|---|
| 2026-05-07 10:00 | 48.46842 | 12.28608 | 33916 ft | 470 kts | 108° |
| 2026-05-07 10:00 | 48.45374 | 12.38251 | 34314 ft | 470 kts | 108° |
| 2026-05-07 10:00 | 48.43912 | 12.47833 | 34688 ft | 470 kts | 108° |
| 2026-05-07 10:00 | 48.42436 | 12.57449 | 35008 ft | 471 kts | 108° |
| 2026-05-07 10:01 | 48.40944 | 12.67048 | 35010 ft | 470 kts | 108° |
| 2026-05-07 10:01 | 48.37206 | 12.85778 | 35009 ft | 466 kts | 114° |
| 2026-05-07 10:02 | 48.32924 | 13.04171 | 35018 ft | 466 kts | 115° |
| 2026-05-07 10:02 | 48.28607 | 13.22548 | 35012 ft | 466 kts | 115° |
| 2026-05-07 10:03 | 48.24296 | 13.40758 | 34988 ft | 466 kts | 116° |
| 2026-05-07 10:03 | 48.19917 | 13.59111 | 34996 ft | 467 kts | 116° |
| 2026-05-07 10:04 | 48.15504 | 13.77445 | 35006 ft | 467 kts | 116° |
| 2026-05-07 10:04 | 48.11096 | 13.95648 | 35006 ft | 467 kts | 117° |
| 2026-05-07 10:05 | 48.06623 | 14.13879 | 35022 ft | 466 kts | 117° |
| 2026-05-07 10:05 | 48.02136 | 14.32058 | 35019 ft | 465 kts | 117° |
| 2026-05-07 10:06 | 47.97641 | 14.50160 | 35014 ft | 464 kts | 117° |
| 2026-05-07 10:06 | 47.93108 | 14.68234 | 35007 ft | 464 kts | 118° |
| 2026-05-07 10:07 | 47.88588 | 14.86124 | 35011 ft | 464 kts | 118° |
| 2026-05-07 10:07 | 47.84023 | 15.04050 | 34980 ft | 462 kts | 118° |
| 2026-05-07 10:08 | 47.79442 | 15.21867 | 34994 ft | 461 kts | 118° |
| 2026-05-07 10:08 | 47.74832 | 15.39670 | 34954 ft | 461 kts | 118° |
| 2026-05-07 10:09 | 47.70191 | 15.57464 | 34967 ft | 463 kts | 118° |
| 2026-05-07 10:09 | 47.65508 | 15.75276 | 34935 ft | 463 kts | 118° |
| 2026-05-07 10:10 | 47.60817 | 15.92989 | 34959 ft | 465 kts | 118° |
| 2026-05-07 10:10 | 47.56114 | 16.10663 | 34936 ft | 465 kts | 119° |
| 2026-05-07 10:11 | 47.51332 | 16.28413 | 35002 ft | 463 kts | 119° |
| 2026-05-07 10:11 | 47.46547 | 16.46074 | 34999 ft | 461 kts | 120° |
| 2026-05-07 10:12 | 47.41786 | 16.63661 | 34985 ft | 462 kts | 118° |
| 2026-05-07 10:12 | 47.37618 | 16.81730 | 34985 ft | 465 kts | 116° |
| 2026-05-07 10:13 | 47.33416 | 16.99659 | 34961 ft | 466 kts | 116° |
| 2026-05-07 10:13 | 47.29079 | 17.17717 | 34981 ft | 468 kts | 116° |
| 2026-05-07 10:14 | 47.24726 | 17.35834 | 34980 ft | 469 kts | 116° |
| 2026-05-07 10:14 | 47.20332 | 17.53941 | 34993 ft | 470 kts | 116° |
| 2026-05-07 10:15 | 47.15894 | 17.72034 | 34975 ft | 471 kts | 116° |
| 2026-05-07 10:15 | 47.11424 | 17.90148 | 34994 ft | 472 kts | 116° |
| 2026-05-07 10:16 | 47.06939 | 18.08146 | 34992 ft | 472 kts | 116° |
| 2026-05-07 10:16 | 47.02400 | 18.26236 | 35002 ft | 472 kts | 116° |
| 2026-05-07 10:17 | 46.97846 | 18.44296 | 35009 ft | 472 kts | 116° |
| 2026-05-07 10:17 | 46.93260 | 18.62271 | 35031 ft | 472 kts | 116° |
| 2026-05-07 10:18 | 46.88661 | 18.80188 | 35002 ft | 470 kts | 116° |
| 2026-05-07 10:18 | 46.84025 | 18.98080 | 35004 ft | 471 kts | 116° |
| 2026-05-07 10:19 | 46.79361 | 19.15978 | 34998 ft | 472 kts | 116° |
| 2026-05-07 10:19 | 46.74645 | 19.33880 | 35010 ft | 473 kts | 117° |
| 2026-05-07 10:20 | 46.69943 | 19.51676 | 35001 ft | 473 kts | 116° |
| 2026-05-07 10:20 | 46.65163 | 19.69561 | 35019 ft | 474 kts | 117° |
| 2026-05-07 10:21 | 46.60366 | 19.87424 | 35020 ft | 474 kts | 116° |
| 2026-05-07 10:21 | 46.55531 | 20.05266 | 35032 ft | 474 kts | 117° |
| 2026-05-07 10:22 | 46.50666 | 20.23054 | 35044 ft | 474 kts | 117° |
| 2026-05-07 10:22 | 46.45815 | 20.40723 | 35048 ft | 474 kts | 117° |
| 2026-05-07 10:23 | 46.40898 | 20.58444 | 35046 ft | 473 kts | 117° |
| 2026-05-07 10:23 | 46.35974 | 20.76108 | 35068 ft | 472 kts | 117° |
| 2026-05-07 10:24 | 46.27069 | 21.07683 | 35076 ft | 472 kts | 117° |
| 2026-05-07 10:24 | 46.17063 | 21.42532 | 35076 ft | 473 kts | 117° |
| 2026-05-07 10:25 | 46.06852 | 21.77548 | 35077 ft | 474 kts | 116° |
| 2026-05-07 10:25 | 45.96556 | 22.12493 | 35070 ft | 474 kts | 116° |
| 2026-05-07 10:26 | 45.86117 | 22.47330 | 35076 ft | 475 kts | 116° |
| 2026-05-07 10:26 | 45.75573 | 22.82054 | 35064 ft | 476 kts | 116° |
| 2026-05-07 10:27 | 45.64885 | 23.16815 | 35069 ft | 478 kts | 116° |
| 2026-05-07 10:27 | 45.54039 | 23.51575 | 35092 ft | 480 kts | 116° |
| 2026-05-07 10:28 | 45.43042 | 23.86305 | 35096 ft | 479 kts | 116° |
| 2026-05-07 10:28 | 45.32064 | 24.20586 | 35076 ft | 480 kts | 117° |
| 2026-05-07 10:29 | 45.20870 | 24.55030 | 35074 ft | 481 kts | 117° |
| 2026-05-07 10:29 | 45.09510 | 24.89528 | 35075 ft | 484 kts | 116° |
| 2026-05-07 10:30 | 44.92173 | 25.41343 | 35075 ft | 487 kts | 116° |
| 2026-05-07 10:30 | 44.80527 | 25.75629 | 35072 ft | 489 kts | 116° |
| 2026-05-07 10:31 | 44.68647 | 26.10090 | 35086 ft | 490 kts | 116° |
| 2026-05-07 10:31 | 44.56628 | 26.44571 | 35075 ft | 492 kts | 116° |
| 2026-05-07 10:32 | 44.44448 | 26.79028 | 35094 ft | 493 kts | 116° |
| 2026-05-07 10:32 | 44.32194 | 27.13293 | 35104 ft | 492 kts | 116° |
| 2026-05-07 10:33 | 44.23633 | 27.36944 | 35104 ft | 492 kts | 116° |
| 2026-05-07 10:33 | 44.17441 | 27.53935 | 35107 ft | 491 kts | 116° |
| 2026-05-07 10:34 | 44.11227 | 27.70887 | 35112 ft | 490 kts | 116° |
| 2026-05-07 10:34 | 44.05000 | 27.87784 | 35111 ft | 490 kts | 116° |
| 2026-05-07 10:35 | 43.98761 | 28.04629 | 35134 ft | 490 kts | 116° |
| 2026-05-07 10:35 | 43.92531 | 28.21316 | 35142 ft | 489 kts | 116° |
| 2026-05-07 10:36 | 43.86245 | 28.38032 | 35161 ft | 488 kts | 116° |
| 2026-05-07 10:36 | 43.79959 | 28.54665 | 35167 ft | 486 kts | 116° |
| 2026-05-07 10:37 | 43.73662 | 28.71214 | 35188 ft | 485 kts | 116° |
| 2026-05-07 10:37 | 43.66709 | 28.87143 | 35181 ft | 485 kts | 125° |
| 2026-05-07 10:38 | 43.58808 | 29.02209 | 35196 ft | 484 kts | 125° |
| 2026-05-07 10:38 | 43.50896 | 29.17253 | 35201 ft | 484 kts | 125° |
| 2026-05-07 10:39 | 43.42965 | 29.32233 | 35177 ft | 484 kts | 125° |
| 2026-05-07 10:39 | 43.36350 | 29.44668 | 35189 ft | 485 kts | 125° |
| 2026-05-07 10:40 | 43.27066 | 29.62023 | 35182 ft | 485 kts | 125° |
| 2026-05-07 10:40 | 43.19062 | 29.76935 | 35184 ft | 485 kts | 125° |
| 2026-05-07 10:41 | 43.12336 | 29.89380 | 35183 ft | 485 kts | 125° |
| 2026-05-07 10:41 | 43.04288 | 30.04223 | 35171 ft | 486 kts | 125° |
| 2026-05-07 10:42 | 42.96215 | 30.19031 | 35174 ft | 486 kts | 125° |
| 2026-05-07 10:42 | 42.88111 | 30.33813 | 35175 ft | 487 kts | 125° |
| 2026-05-07 10:43 | 42.80035 | 30.48490 | 35175 ft | 488 kts | 125° |
| 2026-05-07 10:43 | 42.73533 | 30.64401 | 35163 ft | 479 kts | 100° |
| 2026-05-07 10:44 | 42.71611 | 30.82265 | 35164 ft | 476 kts | 93° |
| 2026-05-07 10:44 | 42.69767 | 31.00129 | 35162 ft | 477 kts | 94° |
| 2026-05-07 10:45 | 42.67905 | 31.17909 | 35184 ft | 477 kts | 94° |
| 2026-05-07 10:45 | 42.66622 | 31.30119 | 35237 ft | 478 kts | 94° |
| 2026-05-07 10:46 | 42.66147 | 31.34587 | 35498 ft | 477 kts | 94° |
| 2026-05-07 10:46 | 42.65667 | 31.39040 | 35771 ft | 476 kts | 94° |
| 2026-05-07 10:46 | 42.65182 | 31.43482 | 36032 ft | 474 kts | 94° |
| 2026-05-07 10:46 | 42.64697 | 31.47906 | 36279 ft | 473 kts | 95° |
| 2026-05-07 10:47 | 42.64213 | 31.52324 | 36512 ft | 472 kts | 95° |
| 2026-05-07 10:47 | 42.63733 | 31.56724 | 36736 ft | 471 kts | 95° |
| 2026-05-07 10:47 | 42.63255 | 31.61124 | 36925 ft | 471 kts | 95° |
| 2026-05-07 10:47 | 42.62778 | 31.65517 | 37120 ft | 470 kts | 95° |
| 2026-05-07 10:48 | 42.61819 | 31.74304 | 37173 ft | 470 kts | 95° |
| 2026-05-07 10:48 | 42.60843 | 31.83088 | 37189 ft | 470 kts | 95° |
| 2026-05-07 10:49 | 42.59871 | 31.91806 | 37174 ft | 470 kts | 95° |
| 2026-05-07 10:49 | 42.58891 | 32.00573 | 37174 ft | 470 kts | 95° |
| 2026-05-07 10:50 | 42.57908 | 32.09339 | 37176 ft | 470 kts | 95° |
| 2026-05-07 10:50 | 42.56913 | 32.18121 | 37181 ft | 471 kts | 95° |
| 2026-05-07 10:51 | 42.55899 | 32.26903 | 37194 ft | 471 kts | 96° |
| 2026-05-07 10:51 | 42.54874 | 32.35677 | 37193 ft | 471 kts | 96° |
| 2026-05-07 10:52 | 42.53855 | 32.44458 | 37208 ft | 471 kts | 96° |
| 2026-05-07 10:52 | 42.52840 | 32.53179 | 37203 ft | 471 kts | 96° |
| 2026-05-07 10:53 | 42.51805 | 32.61943 | 37206 ft | 470 kts | 96° |
| 2026-05-07 10:53 | 42.50769 | 32.70684 | 37201 ft | 469 kts | 96° |
| 2026-05-07 10:54 | 42.49722 | 32.79414 | 37200 ft | 469 kts | 96° |
| 2026-05-07 10:54 | 42.48665 | 32.88139 | 37194 ft | 469 kts | 96° |
| 2026-05-07 10:55 | 42.47607 | 32.96862 | 37194 ft | 469 kts | 96° |
| 2026-05-07 10:55 | 42.46554 | 33.05570 | 37191 ft | 469 kts | 96° |
| 2026-05-07 10:56 | 42.45487 | 33.14279 | 37191 ft | 469 kts | 96° |
| 2026-05-07 10:56 | 42.44406 | 33.22993 | 37191 ft | 469 kts | 97° |
| 2026-05-07 10:57 | 42.43309 | 33.31700 | 37200 ft | 469 kts | 97° |
| 2026-05-07 10:57 | 42.42215 | 33.40398 | 37197 ft | 469 kts | 97° |
| 2026-05-07 10:58 | 42.41131 | 33.49035 | 37204 ft | 468 kts | 97° |
| 2026-05-07 10:58 | 42.40034 | 33.57719 | 37202 ft | 467 kts | 97° |
| 2026-05-07 10:59 | 42.38934 | 33.66379 | 37209 ft | 467 kts | 97° |
| 2026-05-07 10:59 | 42.37819 | 33.75031 | 37198 ft | 467 kts | 97° |
| 2026-05-07 11:00 | 42.36702 | 33.83674 | 37192 ft | 466 kts | 97° |
| 2026-05-07 11:00 | 42.35572 | 33.92310 | 37200 ft | 466 kts | 97° |
| 2026-05-07 11:01 | 42.34447 | 34.00942 | 37201 ft | 466 kts | 97° |
| 2026-05-07 11:01 | 42.33322 | 34.09580 | 37188 ft | 466 kts | 97° |
| 2026-05-07 11:02 | 42.32186 | 34.18211 | 37186 ft | 467 kts | 97° |
| 2026-05-07 11:02 | 42.31034 | 34.26839 | 37186 ft | 467 kts | 97° |
| 2026-05-07 11:03 | 42.29878 | 34.35472 | 37199 ft | 467 kts | 97° |
| 2026-05-07 11:03 | 42.28726 | 34.44050 | 37190 ft | 467 kts | 97° |
| 2026-05-07 11:04 | 42.27554 | 34.52677 | 37198 ft | 467 kts | 97° |
| 2026-05-07 11:04 | 42.26381 | 34.61301 | 37192 ft | 467 kts | 97° |
| 2026-05-07 11:05 | 42.25202 | 34.69928 | 37197 ft | 467 kts | 97° |
| 2026-05-07 11:05 | 42.24016 | 34.78566 | 37189 ft | 468 kts | 98° |
| 2026-05-07 11:06 | 42.22825 | 34.87197 | 37193 ft | 468 kts | 98° |
| 2026-05-07 11:06 | 42.21611 | 34.95825 | 37191 ft | 468 kts | 98° |
| 2026-05-07 11:07 | 42.20400 | 35.04401 | 37191 ft | 468 kts | 98° |
| 2026-05-07 11:07 | 42.19182 | 35.13021 | 37199 ft | 468 kts | 98° |
| 2026-05-07 11:08 | 42.17962 | 35.21644 | 37198 ft | 468 kts | 98° |
| 2026-05-07 11:08 | 42.16733 | 35.30265 | 37199 ft | 468 kts | 98° |
| 2026-05-07 11:09 | 42.15485 | 35.38878 | 37198 ft | 468 kts | 98° |
| 2026-05-07 11:09 | 42.14244 | 35.47487 | 37211 ft | 468 kts | 99° |
| 2026-05-07 11:10 | 42.13004 | 35.56084 | 37211 ft | 467 kts | 99° |
| 2026-05-07 11:10 | 42.11754 | 35.64673 | 37208 ft | 467 kts | 99° |
| 2026-05-07 11:11 | 42.10493 | 35.73244 | 37207 ft | 466 kts | 99° |
| 2026-05-07 11:11 | 42.09241 | 35.81750 | 37214 ft | 466 kts | 100° |
| 2026-05-07 11:12 | 42.07975 | 35.90300 | 37212 ft | 466 kts | 100° |
| 2026-05-07 11:12 | 42.06704 | 35.98844 | 37213 ft | 466 kts | 100° |
| 2026-05-07 11:13 | 42.05424 | 36.07385 | 37214 ft | 465 kts | 100° |
| 2026-05-07 11:13 | 42.04140 | 36.15919 | 37218 ft | 465 kts | 100° |
| 2026-05-07 11:14 | 42.02849 | 36.24442 | 37214 ft | 465 kts | 100° |
| 2026-05-07 11:14 | 42.01549 | 36.32952 | 37211 ft | 464 kts | 100° |
| 2026-05-07 11:15 | 42.00252 | 36.41464 | 37208 ft | 465 kts | 100° |
| 2026-05-07 11:15 | 41.98947 | 36.49972 | 37217 ft | 465 kts | 100° |
| 2026-05-07 11:16 | 41.97633 | 36.58470 | 37219 ft | 464 kts | 100° |
| 2026-05-07 11:16 | 41.96315 | 36.66959 | 37220 ft | 464 kts | 101° |
| 2026-05-07 11:17 | 41.94991 | 36.75388 | 37222 ft | 464 kts | 101° |
| 2026-05-07 11:17 | 41.93652 | 36.83877 | 37224 ft | 464 kts | 101° |
| 2026-05-07 11:18 | 41.92318 | 36.92359 | 37218 ft | 464 kts | 101° |
| 2026-05-07 11:18 | 41.90976 | 37.00832 | 37221 ft | 464 kts | 101° |
| 2026-05-07 11:19 | 41.90321 | 37.09397 | 37220 ft | 461 kts | 89° |
| 2026-05-07 11:19 | 41.90218 | 37.17952 | 37222 ft | 461 kts | 90° |
| 2026-05-07 11:20 | 41.90082 | 37.26559 | 37218 ft | 461 kts | 90° |
| 2026-05-07 11:20 | 41.89939 | 37.35174 | 37220 ft | 461 kts | 90° |
| 2026-05-07 11:21 | 41.89798 | 37.43787 | 37221 ft | 461 kts | 90° |
| 2026-05-07 11:21 | 41.89655 | 37.52397 | 37221 ft | 461 kts | 90° |
| 2026-05-07 11:22 | 41.89499 | 37.61013 | 37222 ft | 461 kts | 90° |
| 2026-05-07 11:22 | 41.89339 | 37.69625 | 37217 ft | 462 kts | 90° |
| 2026-05-07 11:23 | 41.89169 | 37.78238 | 37213 ft | 462 kts | 90° |
| 2026-05-07 11:23 | 41.88991 | 37.86860 | 37209 ft | 462 kts | 90° |
| 2026-05-07 11:24 | 41.88813 | 37.95471 | 37221 ft | 462 kts | 91° |
| 2026-05-07 11:24 | 41.88636 | 38.04087 | 37222 ft | 462 kts | 91° |
| 2026-05-07 11:25 | 41.88450 | 38.12645 | 37218 ft | 462 kts | 91° |
| 2026-05-07 11:25 | 41.88250 | 38.21321 | 37213 ft | 462 kts | 91° |
| 2026-05-07 11:26 | 41.88040 | 38.29891 | 37220 ft | 463 kts | 91° |
| 2026-05-07 11:26 | 41.87825 | 38.38520 | 37222 ft | 463 kts | 91° |
| 2026-05-07 11:27 | 41.87599 | 38.47152 | 37218 ft | 463 kts | 91° |
| 2026-05-07 11:27 | 41.87375 | 38.55800 | 37218 ft | 464 kts | 91° |
| 2026-05-07 11:28 | 41.87148 | 38.64466 | 37226 ft | 465 kts | 91° |
| 2026-05-07 11:28 | 41.86914 | 38.73146 | 37229 ft | 465 kts | 91° |
| 2026-05-07 11:29 | 41.86668 | 38.81826 | 37224 ft | 465 kts | 91° |
| 2026-05-07 11:29 | 41.86410 | 38.90514 | 37231 ft | 466 kts | 92° |
| 2026-05-07 11:30 | 41.86155 | 38.99135 | 37225 ft | 466 kts | 92° |
| 2026-05-07 11:30 | 41.85892 | 39.07819 | 37229 ft | 465 kts | 92° |
| 2026-05-07 11:31 | 41.85619 | 39.16488 | 37228 ft | 465 kts | 92° |
| 2026-05-07 11:31 | 41.85389 | 39.23699 | 37228 ft | 465 kts | 92° |
| 2026-05-07 11:32 | 41.84953 | 39.36729 | 37228 ft | 466 kts | 92° |
| 2026-05-07 11:33 | 41.84661 | 39.45437 | 37225 ft | 467 kts | 92° |
| 2026-05-07 11:33 | 41.84355 | 39.54132 | 37226 ft | 467 kts | 92° |
| 2026-05-07 11:34 | 41.84052 | 39.62838 | 37233 ft | 467 kts | 92° |
| 2026-05-07 11:34 | 41.83747 | 39.71532 | 37232 ft | 467 kts | 93° |
| 2026-05-07 11:35 | 41.83426 | 39.80176 | 37230 ft | 467 kts | 93° |
| 2026-05-07 11:35 | 41.83094 | 39.88889 | 37219 ft | 468 kts | 93° |
| 2026-05-07 11:36 | 41.82759 | 39.97601 | 37224 ft | 468 kts | 93° |
| 2026-05-07 11:36 | 41.82416 | 40.06313 | 37221 ft | 468 kts | 93° |
| 2026-05-07 11:37 | 41.82067 | 40.15030 | 37221 ft | 468 kts | 93° |
| 2026-05-07 11:37 | 41.81715 | 40.23686 | 37214 ft | 468 kts | 93° |
| 2026-05-07 11:38 | 41.81357 | 40.32405 | 37223 ft | 468 kts | 93° |
| 2026-05-07 11:38 | 41.80983 | 40.41121 | 37221 ft | 468 kts | 94° |
| 2026-05-07 11:39 | 41.80602 | 40.49840 | 37218 ft | 468 kts | 94° |
| 2026-05-07 11:39 | 41.80227 | 40.58558 | 37219 ft | 468 kts | 94° |
| 2026-05-07 11:40 | 41.79840 | 40.67269 | 37208 ft | 468 kts | 94° |
| 2026-05-07 11:40 | 41.79425 | 40.75973 | 37212 ft | 468 kts | 94° |
| 2026-05-07 11:41 | 41.78997 | 40.84679 | 37215 ft | 468 kts | 94° |
| 2026-05-07 11:41 | 41.78561 | 40.93383 | 37215 ft | 468 kts | 94° |
| 2026-05-07 11:42 | 41.78116 | 41.02095 | 37208 ft | 469 kts | 94° |
| 2026-05-07 11:42 | 41.77664 | 41.10811 | 37204 ft | 469 kts | 94° |
| 2026-05-07 11:43 | 41.77208 | 41.19528 | 37209 ft | 469 kts | 94° |
| 2026-05-07 11:43 | 41.76752 | 41.28251 | 37212 ft | 469 kts | 94° |
| 2026-05-07 11:44 | 41.76289 | 41.36980 | 37213 ft | 470 kts | 95° |
| 2026-05-07 11:44 | 41.75815 | 41.45654 | 37214 ft | 471 kts | 95° |
| 2026-05-07 11:45 | 41.75331 | 41.54415 | 37218 ft | 471 kts | 95° |
| 2026-05-07 11:45 | 41.74845 | 41.63172 | 37223 ft | 472 kts | 95° |
| 2026-05-07 11:46 | 41.74348 | 41.71939 | 37223 ft | 472 kts | 95° |
| 2026-05-07 11:46 | 41.73842 | 41.80694 | 37211 ft | 472 kts | 95° |
| 2026-05-07 11:47 | 41.73340 | 41.89468 | 37198 ft | 472 kts | 95° |
| 2026-05-07 11:47 | 41.72818 | 41.98243 | 37190 ft | 473 kts | 96° |
| 2026-05-07 11:48 | 41.72281 | 42.07023 | 37178 ft | 473 kts | 96° |
| 2026-05-07 11:48 | 41.71747 | 42.15749 | 37178 ft | 474 kts | 96° |
| 2026-05-07 11:49 | 41.71211 | 42.24540 | 37178 ft | 475 kts | 96° |
| 2026-05-07 11:49 | 41.70670 | 42.33356 | 37179 ft | 476 kts | 96° |
| 2026-05-07 11:50 | 41.70119 | 42.42183 | 37173 ft | 476 kts | 96° |
| 2026-05-07 11:50 | 41.69558 | 42.51026 | 37182 ft | 477 kts | 96° |
| 2026-05-07 11:51 | 41.68982 | 42.59828 | 37183 ft | 477 kts | 96° |
| 2026-05-07 11:51 | 41.68397 | 42.68676 | 37180 ft | 478 kts | 97° |
| 2026-05-07 11:52 | 41.67384 | 42.83995 | 37168 ft | 479 kts | 97° |
| 2026-05-07 11:52 | 41.66172 | 43.01779 | 37171 ft | 480 kts | 97° |
| 2026-05-07 11:53 | 41.65447 | 43.12286 | 37159 ft | 480 kts | 97° |
| 2026-05-07 11:53 | 41.64824 | 43.21196 | 37149 ft | 481 kts | 97° |
| 2026-05-07 11:54 | 41.64188 | 43.30118 | 37161 ft | 482 kts | 97° |
| 2026-05-07 11:54 | 41.63542 | 43.39038 | 37172 ft | 483 kts | 98° |
| 2026-05-07 11:55 | 41.62892 | 43.47926 | 37159 ft | 483 kts | 98° |
| 2026-05-07 11:55 | 41.62244 | 43.56888 | 37162 ft | 484 kts | 98° |
| 2026-05-07 11:56 | 41.61584 | 43.65852 | 37169 ft | 485 kts | 98° |
| 2026-05-07 11:56 | 41.60914 | 43.74826 | 37175 ft | 485 kts | 98° |
| 2026-05-07 11:57 | 41.60237 | 43.83813 | 37168 ft | 486 kts | 98° |
| 2026-05-07 11:57 | 41.59560 | 43.92800 | 37165 ft | 487 kts | 98° |
| 2026-05-07 11:58 | 41.58874 | 44.01757 | 37159 ft | 488 kts | 99° |
| 2026-05-07 11:58 | 41.58167 | 44.10777 | 37164 ft | 488 kts | 99° |
| 2026-05-07 11:59 | 41.57454 | 44.19800 | 37169 ft | 489 kts | 99° |
| 2026-05-07 11:59 | 41.55873 | 44.28537 | 37147 ft | 483 kts | 112° |
| 2026-05-07 12:00 | 41.53759 | 44.37048 | 37144 ft | 483 kts | 112° |
| 2026-05-07 12:00 | 41.51646 | 44.45572 | 37149 ft | 484 kts | 112° |
| 2026-05-07 12:01 | 41.49527 | 44.54105 | 37148 ft | 484 kts | 112° |
| 2026-05-07 12:01 | 41.47404 | 44.62638 | 37143 ft | 485 kts | 112° |
| 2026-05-07 12:02 | 41.45269 | 44.71160 | 37145 ft | 484 kts | 112° |
| 2026-05-07 12:02 | 41.43126 | 44.79664 | 37148 ft | 484 kts | 112° |
| 2026-05-07 12:03 | 41.40981 | 44.88174 | 37119 ft | 484 kts | 112° |
| 2026-05-07 12:03 | 41.38840 | 44.96619 | 37119 ft | 485 kts | 113° |
| 2026-05-07 12:04 | 41.36674 | 45.05122 | 37121 ft | 485 kts | 113° |
| 2026-05-07 12:04 | 41.34504 | 45.13630 | 37118 ft | 486 kts | 113° |
| 2026-05-07 12:05 | 41.32332 | 45.22144 | 37105 ft | 486 kts | 113° |
| 2026-05-07 12:05 | 41.30147 | 45.30667 | 37109 ft | 487 kts | 113° |
| 2026-05-07 12:06 | 41.27946 | 45.39202 | 37110 ft | 488 kts | 113° |
| 2026-05-07 12:06 | 41.25727 | 45.47733 | 37119 ft | 489 kts | 114° |
| 2026-05-07 12:07 | 41.23505 | 45.56273 | 37110 ft | 489 kts | 114° |
| 2026-05-07 12:07 | 41.21275 | 45.64827 | 37112 ft | 490 kts | 114° |
| 2026-05-07 12:08 | 41.19041 | 45.73372 | 37119 ft | 490 kts | 114° |
| 2026-05-07 12:08 | 41.16788 | 45.81924 | 37106 ft | 490 kts | 114° |
| 2026-05-07 12:09 | 41.14526 | 45.90463 | 37107 ft | 490 kts | 114° |
| 2026-05-07 12:09 | 41.12271 | 45.98945 | 37119 ft | 491 kts | 114° |
| 2026-05-07 12:10 | 41.09995 | 46.07484 | 37126 ft | 491 kts | 114° |
| 2026-05-07 12:10 | 41.07708 | 46.16019 | 37118 ft | 491 kts | 114° |
| 2026-05-07 12:11 | 41.05423 | 46.24552 | 37106 ft | 492 kts | 114° |
| 2026-05-07 12:11 | 41.03131 | 46.33093 | 37118 ft | 492 kts | 114° |
| 2026-05-07 12:12 | 41.00869 | 46.41589 | 37122 ft | 492 kts | 114° |
| 2026-05-07 12:12 | 40.98585 | 46.50146 | 37096 ft | 492 kts | 114° |
| 2026-05-07 12:13 | 40.96284 | 46.58686 | 37102 ft | 493 kts | 115° |
| 2026-05-07 12:13 | 40.93973 | 46.67228 | 37107 ft | 493 kts | 115° |
| 2026-05-07 12:14 | 40.91658 | 46.75771 | 37092 ft | 494 kts | 115° |
| 2026-05-07 12:14 | 40.89772 | 46.84541 | 37099 ft | 502 kts | 102° |
| 2026-05-07 12:15 | 40.89091 | 46.93746 | 37105 ft | 504 kts | 99° |
| 2026-05-07 12:15 | 40.88421 | 47.02974 | 37112 ft | 504 kts | 99° |
| 2026-05-07 12:16 | 40.87731 | 47.12189 | 37112 ft | 504 kts | 99° |
| 2026-05-07 12:16 | 40.87044 | 47.21367 | 37092 ft | 504 kts | 99° |
| 2026-05-07 12:17 | 40.86350 | 47.30598 | 37101 ft | 505 kts | 99° |
| 2026-05-07 12:17 | 40.85647 | 47.39850 | 37104 ft | 505 kts | 99° |
| 2026-05-07 12:18 | 40.84941 | 47.49013 | 37110 ft | 505 kts | 100° |
| 2026-05-07 12:18 | 40.84267 | 47.58263 | 37089 ft | 506 kts | 99° |
| 2026-05-07 12:19 | 40.83728 | 47.67549 | 37092 ft | 507 kts | 98° |
| 2026-05-07 12:19 | 40.83208 | 47.76843 | 37101 ft | 508 kts | 98° |
| 2026-05-07 12:20 | 40.82640 | 47.86142 | 37104 ft | 508 kts | 99° |
| 2026-05-07 12:20 | 40.82034 | 47.95428 | 36945 ft | 508 kts | 99° |
| 2026-05-07 12:20 | 40.81831 | 47.98505 | 36776 ft | 508 kts | 99° |
| 2026-05-07 12:21 | 40.81524 | 48.03149 | 36523 ft | 508 kts | 99° |
| 2026-05-07 12:21 | 40.81218 | 48.07794 | 36267 ft | 508 kts | 99° |
| 2026-05-07 12:21 | 40.80910 | 48.12445 | 36036 ft | 508 kts | 99° |
| 2026-05-07 12:21 | 40.80602 | 48.17093 | 35793 ft | 508 kts | 99° |
| 2026-05-07 12:22 | 40.80298 | 48.21746 | 35551 ft | 509 kts | 99° |
| 2026-05-07 12:22 | 40.79993 | 48.26403 | 35311 ft | 509 kts | 99° |
| 2026-05-07 12:22 | 40.79684 | 48.31058 | 35080 ft | 509 kts | 99° |
| 2026-05-07 12:22 | 40.79370 | 48.35716 | 34533 ft | 511 kts | 99° |
| 2026-05-07 12:23 | 40.79044 | 48.40440 | 33234 ft | 523 kts | 99° |
| 2026-05-07 12:23 | 40.78711 | 48.45224 | 32367 ft | 523 kts | 99° |
| 2026-05-07 12:23 | 40.78377 | 48.50033 | 31356 ft | 527 kts | 99° |
| 2026-05-07 12:23 | 40.78046 | 48.54841 | 30568 ft | 525 kts | 99° |
| 2026-05-07 12:24 | 40.77719 | 48.59630 | 29614 ft | 525 kts | 99° |
| 2026-05-07 12:24 | 40.77390 | 48.64419 | 28538 ft | 524 kts | 99° |
| 2026-05-07 12:24 | 40.77053 | 48.69208 | 27472 ft | 523 kts | 99° |
| 2026-05-07 12:24 | 40.76712 | 48.73974 | 26422 ft | 522 kts | 98° |
| 2026-05-07 12:25 | 40.76375 | 48.78677 | 25372 ft | 521 kts | 98° |
| 2026-05-07 12:25 | 40.76035 | 48.83430 | 24247 ft | 520 kts | 98° |
| 2026-05-07 12:25 | 40.75696 | 48.88162 | 23414 ft | 514 kts | 98° |
| 2026-05-07 12:25 | 40.75360 | 48.92806 | 22632 ft | 504 kts | 98° |
| 2026-05-07 12:26 | 40.75027 | 48.97375 | 21831 ft | 497 kts | 98° |
| 2026-05-07 12:26 | 40.74695 | 49.01891 | 21034 ft | 490 kts | 98° |
| 2026-05-07 12:26 | 40.74372 | 49.06294 | 19835 ft | 477 kts | 98° |
| 2026-05-07 12:26 | 40.74055 | 49.10601 | 18521 ft | 468 kts | 98° |
| 2026-05-07 12:27 | 40.73740 | 49.14829 | 17138 ft | 458 kts | 98° |
| 2026-05-07 12:27 | 40.73430 | 49.18962 | 15817 ft | 448 kts | 98° |
| 2026-05-07 12:27 | 40.73127 | 49.23006 | 14555 ft | 439 kts | 98° |
| 2026-05-07 12:27 | 40.72897 | 49.26997 | 13518 ft | 435 kts | 95° |
| 2026-05-07 12:28 | 40.72799 | 49.30944 | 13201 ft | 428 kts | 92° |
| 2026-05-07 12:28 | 40.72775 | 49.34848 | 12722 ft | 424 kts | 91° |
| 2026-05-07 12:28 | 40.72783 | 49.38721 | 12232 ft | 421 kts | 91° |
| 2026-05-07 12:28 | 40.72792 | 49.42559 | 11747 ft | 417 kts | 91° |
| 2026-05-07 12:29 | 40.72784 | 49.46353 | 11391 ft | 406 kts | 91° |
| 2026-05-07 12:29 | 40.72755 | 49.49986 | 11264 ft | 387 kts | 92° |
| 2026-05-07 12:29 | 40.72707 | 49.53458 | 11140 ft | 370 kts | 92° |
| 2026-05-07 12:29 | 40.72652 | 49.56782 | 11020 ft | 355 kts | 92° |
| 2026-05-07 12:30 | 40.72599 | 49.59969 | 10898 ft | 341 kts | 92° |
| 2026-05-07 12:30 | 40.72549 | 49.63042 | 10783 ft | 330 kts | 92° |
| 2026-05-07 12:30 | 40.72497 | 49.66206 | 10721 ft | 363 kts | 92° |
| 2026-05-07 12:30 | 40.72441 | 49.69630 | 10642 ft | 381 kts | 92° |
| 2026-05-07 12:31 | 40.72386 | 49.73097 | 10559 ft | 384 kts | 92° |
| 2026-05-07 12:31 | 40.72464 | 49.76610 | 10467 ft | 385 kts | 82° |
| 2026-05-07 12:31 | 40.73334 | 49.79946 | 10389 ft | 387 kts | 61° |
| 2026-05-07 12:31 | 40.75001 | 49.82699 | 10305 ft | 386 kts | 41° |
| 2026-05-07 12:32 | 40.77225 | 49.84649 | 10232 ft | 383 kts | 23° |
| 2026-05-07 12:32 | 40.79725 | 49.85602 | 10026 ft | 367 kts | 5° |
| 2026-05-07 12:32 | 40.82202 | 49.85623 | 9954 ft | 346 kts | 356° |
| 2026-05-07 12:32 | 40.84550 | 49.85524 | 9949 ft | 328 kts | 356° |
| 2026-05-07 12:33 | 40.88933 | 49.85391 | 9737 ft | 303 kts | 356° |
| 2026-05-07 12:33 | 40.91016 | 49.85332 | 9605 ft | 297 kts | 356° |
| 2026-05-07 12:33 | 40.93074 | 49.85505 | 9474 ft | 298 kts | 14° |
| 2026-05-07 12:34 | 40.94868 | 49.86833 | 9349 ft | 299 kts | 45° |
| 2026-05-07 12:34 | 40.96006 | 49.89115 | 9217 ft | 299 kts | 64° |
| 2026-05-07 12:34 | 40.96770 | 49.91671 | 9003 ft | 299 kts | 78° |
| 2026-05-07 12:34 | 40.96700 | 49.94361 | 8431 ft | 299 kts | 111° |
| 2026-05-07 12:35 | 40.95565 | 49.96576 | 8037 ft | 290 kts | 144° |
| 2026-05-07 12:35 | 40.93776 | 49.97592 | 7652 ft | 275 kts | 178° |
| 2026-05-07 12:35 | 40.91956 | 49.97292 | 7298 ft | 257 kts | 202° |
| 2026-05-07 12:35 | 40.90337 | 49.96447 | 6980 ft | 247 kts | 198° |
| 2026-05-07 12:36 | 40.88640 | 49.96106 | 6660 ft | 248 kts | 183° |
| 2026-05-07 12:36 | 40.86917 | 49.96085 | 6335 ft | 246 kts | 182° |
| 2026-05-07 12:36 | 40.85220 | 49.96077 | 6008 ft | 241 kts | 182° |
| 2026-05-07 12:36 | 40.83555 | 49.96076 | 5684 ft | 237 kts | 182° |
| 2026-05-07 12:37 | 40.81922 | 49.96074 | 5379 ft | 232 kts | 182° |
| 2026-05-07 12:37 | 40.80320 | 49.96077 | 5067 ft | 228 kts | 181° |
| 2026-05-07 12:37 | 40.78743 | 49.96080 | 4760 ft | 225 kts | 181° |
| 2026-05-07 12:37 | 40.77181 | 49.96080 | 4434 ft | 223 kts | 181° |
| 2026-05-07 12:38 | 40.75632 | 49.96079 | 4112 ft | 221 kts | 180° |
| 2026-05-07 12:38 | 40.74100 | 49.96081 | 3800 ft | 219 kts | 180° |
| 2026-05-07 12:38 | 40.72547 | 49.96082 | 3255 ft | 228 kts | 180° |
| 2026-05-07 12:38 | 40.70966 | 49.96245 | 2773 ft | 231 kts | 169° |
| 2026-05-07 12:39 | 40.69406 | 49.96673 | 2453 ft | 227 kts | 165° |
| 2026-05-07 12:39 | 40.67890 | 49.97170 | 2132 ft | 223 kts | 165° |
| 2026-05-07 12:39 | 40.66417 | 49.97641 | 1983 ft | 210 kts | 167° |
| 2026-05-07 12:39 | 40.65031 | 49.98035 | 1981 ft | 199 kts | 166° |
| 2026-05-07 12:40 | 40.63704 | 49.98439 | 1980 ft | 193 kts | 165° |
| 2026-05-07 12:40 | 40.62444 | 49.98834 | 1996 ft | 177 kts | 165° |
| 2026-05-07 12:40 | 40.61283 | 49.99199 | 1998 ft | 166 kts | 163° |
| 2026-05-07 12:40 | 40.60176 | 49.99549 | 1984 ft | 162 kts | 164° |
| 2026-05-07 12:41 | 40.59078 | 49.99896 | 1928 ft | 162 kts | 165° |
| 2026-05-07 12:41 | 40.57999 | 50.00237 | 1776 ft | 161 kts | 164° |
| 2026-05-07 12:41 | 40.56942 | 50.00569 | 1574 ft | 150 kts | 164° |
| 2026-05-07 12:41 | 40.55949 | 50.00882 | 1384 ft | 145 kts | 164° |
| 2026-05-07 12:42 | 40.54979 | 50.01188 | 1200 ft | 142 kts | 163° |
| 2026-05-07 12:42 | 40.54027 | 50.01488 | 1016 ft | 141 kts | 164° |
| 2026-05-07 12:42 | 40.53071 | 50.01790 | 831 ft | 141 kts | 165° |
| 2026-05-07 12:42 | 40.52118 | 50.02090 | 656 ft | 140 kts | 165° |
| 2026-05-07 12:43 | 40.51176 | 50.02386 | 474 ft | 138 kts | 165° |
| 2026-05-07 12:43 | 40.50255 | 50.02676 | 304 ft | 135 kts | 165° |
| 2026-05-07 12:43 | 40.49347 | 50.02962 | 120 ft | 134 kts | 165° |
| 2026-05-07 12:43 | 40.48445 | 50.03245 | 4 ft | 130 kts | 165° |
| 2026-05-07 12:44 | 40.47682 | 50.03482 | -6 ft | 90 kts | 166° |
| 2026-05-07 12:44 | 40.47225 | 50.03628 | -1 ft | 54 kts | 166° |
| 2026-05-07 12:44 | 40.46931 | 50.03722 | 0 ft | 39 kts | 166° |
| 2026-05-07 12:44 | 40.46807 | 50.03831 | -1 ft | 19 kts | 92° |
| 2026-05-07 12:45 | 40.46813 | 50.04003 | 1 ft | 19 kts | 107° |
| 2026-05-07 12:45 | 40.46719 | 50.04068 | 1 ft | 16 kts | 161° |
| 2026-05-07 12:45 | 40.46607 | 50.04121 | 2 ft | 18 kts | 159° |
| 2026-05-07 12:45 | 40.46540 | 50.04239 | 3 ft | 18 kts | 89° |
| 2026-05-07 12:46 | 40.46545 | 50.04417 | 2 ft | 21 kts | 88° |
| 2026-05-07 12:46 | 40.46549 | 50.04614 | 1 ft | 23 kts | 86° |
| 2026-05-07 12:46 | 40.46544 | 50.04802 | 0 ft | 17 kts | 123° |
| 2026-05-07 12:46 | 40.46453 | 50.04829 | 0 ft | 4 kts | 148° |
| 2026-05-07 12:47 | 40.46431 | 50.04847 | 0 ft | 3 kts | 149° |
| 2026-05-07 12:47 | 40.46414 | 50.04861 | 0 ft | 2 kts | 148° |
| 2026-05-07 12:47 | 40.46402 | 50.04870 | 0 ft | 1 kts | 148° |
| 2026-05-07 12:47 | 40.46396 | 50.04875 | 0 ft | 0 kts | 148° |